createdAt,value
2019-01-14T00:00:49.948Z,97.00
2019-01-14T00:03:17.720Z,96.90
2019-01-14T00:05:45.052Z,96.80
2019-01-14T00:08:12.648Z,96.70
2019-01-14T00:10:39.934Z,96.50
2019-01-14T00:13:07.378Z,96.70
2019-01-14T00:15:34.692Z,96.60
2019-01-14T00:18:02.020Z,96.30
2019-01-14T00:20:29.228Z,96.30
2019-01-14T00:22:56.812Z,96.50
2019-01-14T00:25:24.016Z,96.60
2019-01-14T00:27:51.282Z,96.60
2019-01-14T00:30:18.640Z,96.70
2019-01-14T00:32:46.027Z,96.60
2019-01-14T00:35:13.439Z,96.60
2019-01-14T00:37:40.780Z,96.50
2019-01-14T00:40:12.981Z,96.40
2019-01-14T00:42:40.944Z,96.40
2019-01-14T00:45:08.510Z,96.20
2019-01-14T00:47:36.756Z,96.10
2019-01-14T00:50:04.416Z,96.10
2019-01-14T00:52:31.656Z,96.00
2019-01-14T00:54:58.982Z,96.00
2019-01-14T00:57:26.253Z,95.80
2019-01-14T00:59:53.937Z,95.00
2019-01-14T01:02:21.347Z,94.70
2019-01-14T01:04:48.550Z,95.10
2019-01-14T01:07:15.896Z,95.10
2019-01-14T01:09:43.236Z,95.90
2019-01-14T01:12:11.059Z,96.50
2019-01-14T01:14:38.462Z,97.10
2019-01-14T01:17:05.792Z,97.60
2019-01-14T01:19:34.152Z,97.80
2019-01-14T01:22:01.473Z,98.00
2019-01-14T01:24:28.817Z,98.20
2019-01-14T01:26:56.136Z,98.30
2019-01-14T01:29:23.468Z,98.20
2019-01-14T01:31:50.976Z,98.10
2019-01-14T01:34:18.425Z,98.10
2019-01-14T01:36:45.724Z,98.20
2019-01-14T01:39:13.069Z,98.30
2019-01-14T01:41:40.412Z,98.30
2019-01-14T01:44:07.750Z,98.30
2019-01-14T01:46:35.088Z,98.30
2019-01-14T01:49:02.736Z,98.70
2019-01-14T01:51:29.976Z,98.20
2019-01-14T01:53:57.289Z,98.10
2019-01-14T01:56:24.649Z,98.10
2019-01-14T01:58:52.082Z,98.10
2019-01-14T02:01:19.466Z,98.10
2019-01-14T02:03:46.802Z,98.20
2019-01-14T02:06:14.151Z,98.20
2019-01-14T02:08:41.514Z,98.20
2019-01-14T02:11:08.852Z,98.20
2019-01-14T02:13:36.192Z,98.20
2019-01-14T02:16:03.606Z,98.10
2019-01-14T02:18:30.938Z,98.10
2019-01-14T02:20:58.274Z,98.00
2019-01-14T02:23:25.588Z,98.00
2019-01-14T02:25:53.014Z,97.90
2019-01-14T02:28:20.380Z,98.00
2019-01-14T02:30:47.701Z,98.00
2019-01-14T02:33:15.077Z,98.00
2019-01-14T02:35:42.526Z,98.00
2019-01-14T02:38:09.889Z,97.90
2019-01-14T02:40:37.238Z,97.80
2019-01-14T02:43:04.618Z,97.60
2019-01-14T02:45:32.007Z,97.60
2019-01-14T02:47:59.379Z,97.50
2019-01-14T02:50:26.713Z,97.50
2019-01-14T02:52:54.018Z,97.50
2019-01-14T02:55:21.336Z,97.40
2019-01-14T02:57:51.506Z,97.40
2019-01-14T03:00:21.529Z,97.20
2019-01-14T03:02:48.864Z,97.10
2019-01-14T03:05:16.219Z,97.10
2019-01-14T03:07:43.549Z,97.40
2019-01-14T03:10:11.144Z,96.90
2019-01-14T03:12:41.412Z,96.90
2019-01-14T03:15:09.031Z,96.90
2019-01-14T03:17:36.405Z,96.70
2019-01-14T03:20:05.949Z,96.70
2019-01-14T03:22:33.218Z,96.70
2019-01-14T03:25:00.671Z,96.70
2019-01-14T03:27:28.052Z,96.70
2019-01-14T03:29:55.452Z,96.80
2019-01-14T03:32:22.814Z,96.60
2019-01-14T03:34:50.132Z,96.70
2019-01-14T03:37:17.529Z,96.80
2019-01-14T03:39:44.864Z,97.00
2019-01-14T03:42:12.278Z,97.10
2019-01-14T03:44:39.530Z,97.20
2019-01-14T03:47:06.865Z,97.40
2019-01-14T03:49:34.078Z,97.50
2019-01-14T03:52:01.304Z,97.50
2019-01-14T03:54:29.294Z,97.90
2019-01-14T03:56:56.680Z,97.50
2019-01-14T03:59:24.142Z,97.50
2019-01-14T04:01:51.533Z,97.50
2019-01-14T04:04:18.858Z,97.60
2019-01-14T04:06:46.242Z,97.60
2019-01-14T04:09:13.589Z,97.70
2019-01-14T04:11:40.920Z,97.70
2019-01-14T04:14:08.257Z,97.70
2019-01-14T04:16:35.549Z,97.70
2019-01-14T04:19:03.273Z,97.60
2019-01-14T04:21:30.568Z,97.60
2019-01-14T04:23:57.988Z,97.50
2019-01-14T04:26:25.275Z,97.40
2019-01-14T04:28:52.639Z,97.20
2019-01-14T04:31:20.014Z,97.20
2019-01-14T04:33:47.341Z,97.00
2019-01-14T04:36:14.677Z,96.80
2019-01-14T04:38:42.207Z,96.90
2019-01-14T04:41:09.511Z,96.90
2019-01-14T04:43:36.866Z,96.90
2019-01-14T04:46:04.296Z,96.70
2019-01-14T04:48:31.692Z,96.60
2019-01-14T04:50:59.026Z,96.50
2019-01-14T04:53:26.429Z,96.50
2019-01-14T04:55:53.838Z,96.50
2019-01-14T04:58:21.160Z,96.50
2019-01-14T05:00:48.536Z,96.50
2019-01-14T05:03:15.912Z,96.40
2019-01-14T05:05:43.263Z,96.40
2019-01-14T05:08:10.651Z,96.30
2019-01-14T05:10:38.107Z,96.30
2019-01-14T05:13:05.506Z,96.20
2019-01-14T05:15:32.889Z,96.10
2019-01-14T05:18:00.252Z,96.20
2019-01-14T05:20:27.591Z,96.20
2019-01-14T05:22:55.448Z,96.50
2019-01-14T05:25:22.811Z,96.30
2019-01-14T05:27:50.219Z,96.40
2019-01-14T05:30:17.817Z,96.50
2019-01-14T05:32:45.219Z,96.40
2019-01-14T05:35:12.830Z,96.40
2019-01-14T05:37:40.226Z,96.30
2019-01-14T05:40:15.814Z,96.40
2019-01-14T05:42:43.136Z,96.40
2019-01-14T05:45:10.560Z,96.40
2019-01-14T05:47:38.007Z,96.50
2019-01-14T05:50:05.765Z,96.50
2019-01-14T05:52:33.203Z,96.50
2019-01-14T05:55:00.646Z,96.60
2019-01-14T05:57:28.129Z,96.70
2019-01-14T05:59:55.373Z,96.70
2019-01-14T06:02:22.741Z,96.60
2019-01-14T06:04:50.077Z,96.70
2019-01-14T06:07:17.442Z,96.70
2019-01-14T06:09:44.793Z,96.80
2019-01-14T06:12:12.325Z,96.80
2019-01-14T06:14:39.785Z,96.90
2019-01-14T06:17:07.119Z,96.90
2019-01-14T06:19:35.722Z,96.90
2019-01-14T06:22:02.939Z,97.00
2019-01-14T06:24:30.284Z,97.00
2019-01-14T06:26:57.683Z,97.10
2019-01-14T06:29:25.108Z,97.50
2019-01-14T06:31:52.379Z,97.30
2019-01-14T06:34:19.713Z,97.40
2019-01-14T06:36:47.053Z,97.50
2019-01-14T06:39:14.739Z,97.60
2019-01-14T06:41:42.142Z,97.70
2019-01-14T06:44:09.460Z,97.80
2019-01-14T06:46:39.824Z,98.00
2019-01-14T06:49:07.187Z,98.10
2019-01-14T06:51:34.589Z,98.10
2019-01-14T06:54:01.817Z,98.10
2019-01-14T06:56:29.137Z,98.10
2019-01-14T06:58:56.463Z,98.10
2019-01-14T07:01:23.899Z,98.10
2019-01-14T07:03:51.317Z,98.00
2019-01-14T07:06:18.840Z,98.00
2019-01-14T07:08:46.185Z,98.00
2019-01-14T07:11:13.691Z,98.00
2019-01-14T07:13:41.120Z,98.00
2019-01-14T07:16:08.450Z,98.00
2019-01-14T07:18:39.017Z,98.00
2019-01-14T07:21:06.242Z,98.00
2019-01-14T07:23:33.579Z,98.00
2019-01-14T07:26:00.911Z,98.00
2019-01-14T07:28:28.265Z,98.00
2019-01-14T07:30:55.709Z,98.00
2019-01-14T07:33:23.100Z,97.90
2019-01-14T07:35:50.453Z,97.90
2019-01-14T07:38:17.761Z,98.00
2019-01-14T07:40:45.118Z,98.00
2019-01-14T07:43:12.506Z,98.00
2019-01-14T07:45:39.871Z,98.00
2019-01-14T07:48:07.217Z,97.90
2019-01-14T07:50:34.630Z,97.90
2019-01-14T07:53:01.945Z,97.90
2019-01-14T07:55:29.355Z,97.80
2019-01-14T07:57:56.748Z,97.70
2019-01-14T08:00:25.427Z,97.80
2019-01-14T08:02:53.100Z,97.80
2019-01-14T08:05:20.454Z,97.80
2019-01-14T08:07:47.923Z,97.60
2019-01-14T08:10:16.104Z,97.60
2019-01-14T08:12:43.476Z,97.70
2019-01-14T08:15:12.431Z,97.90
2019-01-14T08:17:39.673Z,98.20
2019-01-14T08:20:08.057Z,98.40
2019-01-14T08:22:35.460Z,98.70
2019-01-14T08:25:03.458Z,98.90
2019-01-14T08:27:30.901Z,99.00
2019-01-14T08:29:58.237Z,98.60
2019-01-14T08:32:25.584Z,98.40
2019-01-14T08:34:53.096Z,98.10
2019-01-14T08:37:20.481Z,98.10
2019-01-14T08:39:47.976Z,98.10
2019-01-14T08:42:15.754Z,98.20
2019-01-14T08:44:43.562Z,98.40
2019-01-14T08:47:10.876Z,98.40
2019-01-14T08:49:38.225Z,98.50
2019-01-14T08:52:05.537Z,98.60
2019-01-14T08:54:32.861Z,98.50
2019-01-14T08:57:02.049Z,98.50
2019-01-14T08:59:29.260Z,98.50
2019-01-14T09:01:56.676Z,98.50
2019-01-14T09:04:24.520Z,98.50
2019-01-14T09:06:52.066Z,98.30
2019-01-14T09:09:19.400Z,98.30
2019-01-14T09:11:46.689Z,98.30
2019-01-14T09:14:14.029Z,98.00
2019-01-14T09:16:41.240Z,97.80
2019-01-14T09:19:08.562Z,98.10
2019-01-14T09:21:35.889Z,97.90
2019-01-14T09:24:03.235Z,97.80
2019-01-14T09:26:30.629Z,97.80
2019-01-14T09:28:58.000Z,97.90
2019-01-14T09:31:28.204Z,98.00
2019-01-14T09:33:55.856Z,98.00
2019-01-14T09:36:23.297Z,98.10
2019-01-14T09:38:50.635Z,98.00
2019-01-14T09:41:17.949Z,98.00
2019-01-14T09:43:45.346Z,98.10
2019-01-14T09:46:12.756Z,97.90
2019-01-14T09:48:40.413Z,97.60
2019-01-14T09:51:07.800Z,97.10
2019-01-14T09:53:35.135Z,97.00
2019-01-14T09:56:02.479Z,97.00
2019-01-14T09:58:29.723Z,97.10
2019-01-14T10:00:57.340Z,97.20
2019-01-14T10:03:27.692Z,97.10
2019-01-14T10:05:57.652Z,96.80
2019-01-14T10:08:25.077Z,95.90
2019-01-14T10:10:52.530Z,93.00
2019-01-14T10:13:19.879Z,86.20
2019-01-14T10:15:47.339Z,73.90
2019-01-14T10:18:14.647Z,64.30
2019-01-14T10:20:42.021Z,58.40
2019-01-14T10:23:09.345Z,57.20
2019-01-14T10:25:36.582Z,55.60
2019-01-14T10:28:03.962Z,54.20
2019-01-14T10:30:31.286Z,53.30
2019-01-14T10:32:58.700Z,52.50
2019-01-14T10:35:26.183Z,51.10
2019-01-14T10:37:53.487Z,52.20
2019-01-14T10:40:20.838Z,51.80
2019-01-14T10:42:48.172Z,50.50
2019-01-14T10:45:17.747Z,50.60
2019-01-14T10:47:45.153Z,50.90
2019-01-14T10:50:12.791Z,52.60
2019-01-14T10:52:40.254Z,55.20
2019-01-14T10:55:12.323Z,57.10
2019-01-14T10:57:37.686Z,59.00
2019-01-14T11:00:08.800Z,61.80
2019-01-14T11:02:36.622Z,65.00
2019-01-14T11:05:06.824Z,68.10
2019-01-14T11:07:34.173Z,71.00
2019-01-14T11:10:01.484Z,73.40
2019-01-14T11:12:28.819Z,75.30
2019-01-14T11:14:56.300Z,76.40
2019-01-14T11:17:23.715Z,74.90
2019-01-14T11:19:51.060Z,70.10
2019-01-14T11:22:18.407Z,65.90
2019-01-14T11:24:49.307Z,64.00
2019-01-14T11:27:17.371Z,64.10
2019-01-14T11:29:53.739Z,65.60
2019-01-14T11:32:21.876Z,67.10
2019-01-14T11:34:49.226Z,68.90
2019-01-14T11:37:16.529Z,72.50
2019-01-14T11:39:45.694Z,76.80
2019-01-14T11:42:13.019Z,79.60
2019-01-14T11:44:40.365Z,81.70
2019-01-14T11:47:07.841Z,83.30
2019-01-14T11:49:35.184Z,84.70
2019-01-14T11:52:02.604Z,85.50
2019-01-14T11:54:29.941Z,86.00
2019-01-14T11:56:57.313Z,86.20
2019-01-14T11:59:24.560Z,86.40
2019-01-14T12:01:51.819Z,86.40
2019-01-14T12:04:19.208Z,86.50
2019-01-14T12:06:46.560Z,86.40
2019-01-14T12:09:13.880Z,86.60
2019-01-14T12:11:41.232Z,85.40
2019-01-14T12:14:08.593Z,80.00
2019-01-14T12:16:35.919Z,73.80
2019-01-14T12:19:03.729Z,69.00
2019-01-14T12:21:31.062Z,68.80
2019-01-14T12:23:58.403Z,70.00
2019-01-14T12:26:25.730Z,72.00
2019-01-14T12:28:55.172Z,73.50
2019-01-14T12:31:22.555Z,75.00
2019-01-14T12:33:49.918Z,77.10
2019-01-14T12:36:17.160Z,78.30
2019-01-14T12:38:44.492Z,78.80
2019-01-14T12:41:11.843Z,79.20
2019-01-14T12:43:39.184Z,79.40
2019-01-14T12:46:06.601Z,79.30
2019-01-14T12:48:33.920Z,79.20
2019-01-14T12:51:01.162Z,79.80
2019-01-14T12:53:28.518Z,80.40
2019-01-14T12:55:55.868Z,80.80
2019-01-14T12:58:24.216Z,81.20
2019-01-14T13:00:51.543Z,81.40
2019-01-14T13:03:18.902Z,81.70
2019-01-14T13:05:46.147Z,81.20
2019-01-14T13:08:13.465Z,81.20
2019-01-14T13:10:40.826Z,81.40
2019-01-14T13:13:08.192Z,81.50
2019-01-14T13:15:35.522Z,81.50
2019-01-14T13:18:05.419Z,81.20
2019-01-14T13:20:32.103Z,81.10
2019-01-14T13:22:59.516Z,80.90
2019-01-14T13:25:26.918Z,80.10
2019-01-14T13:27:54.237Z,80.40
2019-01-14T13:30:23.558Z,80.40
2019-01-14T13:32:50.945Z,80.30
2019-01-14T13:35:19.635Z,80.60
2019-01-14T13:37:46.982Z,80.90
2019-01-14T13:40:14.409Z,81.40
2019-01-14T13:42:41.763Z,82.10
2019-01-14T13:45:11.187Z,82.60
2019-01-14T13:47:38.617Z,83.30
2019-01-14T13:50:07.542Z,85.40
2019-01-14T13:52:34.855Z,87.60
2019-01-14T13:55:02.251Z,89.50
2019-01-14T13:57:29.590Z,90.60
2019-01-14T13:59:56.973Z,91.30
2019-01-14T14:02:24.219Z,91.80
2019-01-14T14:04:51.567Z,92.00
2019-01-14T14:07:18.819Z,92.30
2019-01-14T14:09:46.139Z,92.60
2019-01-14T14:12:13.487Z,92.90
2019-01-14T14:14:40.885Z,93.10
2019-01-14T14:17:08.197Z,93.20
2019-01-14T14:19:35.518Z,93.10
2019-01-14T14:22:02.859Z,93.00
2019-01-14T14:24:30.277Z,92.70
2019-01-14T14:26:57.542Z,92.30
2019-01-14T14:29:24.865Z,92.10
2019-01-14T14:31:52.235Z,91.70
2019-01-14T14:34:19.629Z,91.50
2019-01-14T14:36:46.981Z,91.30
2019-01-14T14:39:14.399Z,91.10
2019-01-14T14:41:41.787Z,90.90
2019-01-14T14:44:09.120Z,90.90
2019-01-14T14:46:36.335Z,91.00
2019-01-14T14:49:03.719Z,91.10
2019-01-14T14:51:31.049Z,91.10
2019-01-14T14:53:58.366Z,91.10
2019-01-14T14:56:27.232Z,91.00
2019-01-14T14:58:54.521Z,91.10
2019-01-14T15:01:22.065Z,91.20
2019-01-14T15:03:49.426Z,91.30
2019-01-14T15:06:16.756Z,91.20
2019-01-14T15:08:44.108Z,91.10
2019-01-14T15:11:11.444Z,91.00
2019-01-14T15:13:38.820Z,91.00
2019-01-14T15:16:06.242Z,91.00
2019-01-14T15:18:33.585Z,91.10
2019-01-14T15:21:00.821Z,91.10
2019-01-14T15:23:28.064Z,91.20
2019-01-14T15:25:55.384Z,91.10
2019-01-14T15:28:22.716Z,91.20
2019-01-14T15:30:52.918Z,91.20
2019-01-14T15:33:20.292Z,91.30
2019-01-14T15:35:47.604Z,91.50
2019-01-14T15:38:15.154Z,91.60
2019-01-14T15:40:42.499Z,91.70
2019-01-14T15:43:09.898Z,91.30
2019-01-14T15:45:37.228Z,91.10
2019-01-14T15:48:04.868Z,90.80
2019-01-14T15:50:32.181Z,90.70
2019-01-14T15:53:00.452Z,90.70
2019-01-14T15:55:27.894Z,90.70
2019-01-14T15:57:55.396Z,90.90
2019-01-14T16:00:23.158Z,91.00
2019-01-14T16:02:50.664Z,91.10
2019-01-14T16:05:18.488Z,91.20
2019-01-14T16:07:45.804Z,91.20
2019-01-14T16:10:21.355Z,91.20
2019-01-14T16:12:48.836Z,91.20
2019-01-14T16:15:16.317Z,91.20
2019-01-14T16:17:44.186Z,91.30
2019-01-14T16:20:13.595Z,91.30
2019-01-14T16:22:40.949Z,91.30
2019-01-14T16:25:09.024Z,91.20
2019-01-14T16:27:36.819Z,91.10
2019-01-14T16:30:09.392Z,91.10
2019-01-14T16:32:36.786Z,91.10
2019-01-14T16:35:04.645Z,91.20
2019-01-14T16:37:32.001Z,91.20
2019-01-14T16:39:59.357Z,91.20
2019-01-14T16:42:26.785Z,91.40
2019-01-14T16:44:54.025Z,91.40
2019-01-14T16:47:21.383Z,91.30
2019-01-14T16:49:48.706Z,91.20
2019-01-14T16:52:16.154Z,91.10
2019-01-14T16:54:43.493Z,91.10
2019-01-14T16:57:11.081Z,91.00
2019-01-14T16:59:38.579Z,91.00
2019-01-14T17:02:05.961Z,91.00
2019-01-14T17:04:33.432Z,90.90
2019-01-14T17:07:00.772Z,90.90
2019-01-14T17:09:28.176Z,90.90
2019-01-14T17:11:55.521Z,91.00
2019-01-14T17:14:23.101Z,91.00
2019-01-14T17:16:50.448Z,91.00
2019-01-14T17:19:17.822Z,91.00
2019-01-14T17:21:45.059Z,91.10
2019-01-14T17:24:12.395Z,91.10
2019-01-14T17:26:39.729Z,91.10
2019-01-14T17:29:07.104Z,91.00
2019-01-14T17:31:34.641Z,91.10
2019-01-14T17:34:02.016Z,91.00
2019-01-14T17:36:29.356Z,90.80
2019-01-14T17:38:56.709Z,90.80
2019-01-14T17:41:24.192Z,90.60
2019-01-14T17:43:51.544Z,90.90
2019-01-14T17:46:18.942Z,90.40
2019-01-14T17:48:46.308Z,90.30
2019-01-14T17:51:13.665Z,90.30
2019-01-14T17:53:41.048Z,90.20
2019-01-14T17:56:08.400Z,90.30
2019-01-14T17:58:35.754Z,90.30
2019-01-14T18:01:02.989Z,90.30
2019-01-14T18:03:30.336Z,90.30
2019-01-14T18:05:57.713Z,90.40
2019-01-14T18:08:25.216Z,90.50
2019-01-14T18:10:52.437Z,90.40
2019-01-14T18:13:19.850Z,90.40
2019-01-14T18:15:47.230Z,90.40
2019-01-14T18:18:14.638Z,90.50
2019-01-14T18:20:42.038Z,90.60
2019-01-14T18:23:09.462Z,90.70
2019-01-14T18:25:36.789Z,90.70
2019-01-14T18:28:04.291Z,90.80
2019-01-14T18:30:31.712Z,90.90
2019-01-14T18:32:59.118Z,91.00
2019-01-14T18:35:26.398Z,91.00
2019-01-14T18:37:53.841Z,91.10
2019-01-14T18:40:21.360Z,91.10
2019-01-14T18:42:48.810Z,91.20
2019-01-14T18:45:18.015Z,91.30
2019-01-14T18:47:45.278Z,91.30
2019-01-14T18:50:14.938Z,91.40
2019-01-14T18:52:42.297Z,91.40
2019-01-14T18:55:09.753Z,91.50
2019-01-14T18:57:37.263Z,91.50
2019-01-14T19:00:08.040Z,91.60
2019-01-14T19:02:35.399Z,91.60
2019-01-14T19:05:03.212Z,91.60
2019-01-14T19:07:30.490Z,91.70
2019-01-14T19:09:57.865Z,91.80
2019-01-14T19:12:25.209Z,91.80
2019-01-14T19:14:52.585Z,91.90
2019-01-14T19:17:20.189Z,91.90
2019-01-14T19:19:47.490Z,91.90
2019-01-14T19:22:14.912Z,91.90
2019-01-14T19:24:42.325Z,91.80
2019-01-14T19:27:16.299Z,92.10
2019-01-14T19:29:39.185Z,91.70
2019-01-14T19:32:06.615Z,91.70
2019-01-14T19:34:34.077Z,91.60
2019-01-14T19:37:01.469Z,91.60
2019-01-14T19:39:28.858Z,91.60
2019-01-14T19:41:56.416Z,91.70
2019-01-14T19:44:23.869Z,91.70
2019-01-14T19:46:51.278Z,91.70
2019-01-14T19:49:18.725Z,91.80
2019-01-14T19:51:46.352Z,91.90
2019-01-14T19:54:13.743Z,92.00
2019-01-14T19:56:41.158Z,92.20
2019-01-14T19:59:08.709Z,92.20
2019-01-14T20:01:36.047Z,92.30
2019-01-14T20:04:03.573Z,92.40
2019-01-14T20:06:31.143Z,92.40
2019-01-14T20:08:58.762Z,92.50
2019-01-14T20:11:26.158Z,92.50
2019-01-14T20:13:53.562Z,92.60
2019-01-14T20:16:21.237Z,92.60
2019-01-14T20:18:48.638Z,92.60
2019-01-14T20:21:16.030Z,92.70
2019-01-14T20:23:43.544Z,92.60
2019-01-14T20:26:10.924Z,92.70
2019-01-14T20:28:38.237Z,92.70
2019-01-14T20:31:05.606Z,92.80
2019-01-14T20:33:33.022Z,92.80
2019-01-14T20:36:00.406Z,92.80
2019-01-14T20:38:27.797Z,92.90
2019-01-14T20:40:55.103Z,92.90
2019-01-14T20:43:22.519Z,92.90
2019-01-14T20:45:50.033Z,92.90
2019-01-14T20:48:17.516Z,93.00
2019-01-14T20:50:44.922Z,93.00
2019-01-14T20:53:13.724Z,93.00
2019-01-14T20:55:41.435Z,93.00
2019-01-14T20:58:08.845Z,93.00
2019-01-14T21:00:36.203Z,93.00
2019-01-14T21:03:03.639Z,93.00
2019-01-14T21:05:30.995Z,93.00
2019-01-14T21:07:58.344Z,93.00
2019-01-14T21:10:28.992Z,93.00
2019-01-14T21:12:57.995Z,93.00
2019-01-14T21:15:25.462Z,93.00
2019-01-14T21:17:52.958Z,93.10
2019-01-14T21:20:24.161Z,93.10
2019-01-14T21:22:52.341Z,93.10
2019-01-14T21:25:19.952Z,93.10
2019-01-14T21:27:47.416Z,93.20
2019-01-14T21:30:26.301Z,93.20
2019-01-14T21:32:53.659Z,93.20
2019-01-14T21:35:21.045Z,93.10
2019-01-14T21:37:49.594Z,93.10
2019-01-14T21:40:16.997Z,93.20
2019-01-14T21:42:44.289Z,93.20
2019-01-14T21:45:11.977Z,93.30
2019-01-14T21:47:39.601Z,93.40
2019-01-14T21:50:12.179Z,93.40
2019-01-14T21:52:39.581Z,93.40
2019-01-14T21:55:08.889Z,93.70
2019-01-14T21:57:36.319Z,93.40
2019-01-14T22:00:07.567Z,93.40
2019-01-14T22:02:34.934Z,93.40
2019-01-14T22:05:02.421Z,93.40
2019-01-14T22:07:29.781Z,93.40
2019-01-14T22:09:57.161Z,93.50
2019-01-14T22:12:24.527Z,93.50
2019-01-14T22:14:52.187Z,93.50
2019-01-14T22:17:19.593Z,93.60
2019-01-14T22:19:47.100Z,93.60
2019-01-14T22:22:14.501Z,93.60
2019-01-14T22:24:42.956Z,93.70
2019-01-14T22:27:13.249Z,93.70
2019-01-14T22:29:40.611Z,93.70
2019-01-14T22:32:08.121Z,93.70
2019-01-14T22:34:35.522Z,93.70
2019-01-14T22:37:03.032Z,94.20
2019-01-14T22:39:30.440Z,93.80
2019-01-14T22:41:57.861Z,93.90
2019-01-14T22:44:25.239Z,93.90
2019-01-14T22:46:52.593Z,94.00
2019-01-14T22:49:20.024Z,94.00
2019-01-14T22:51:47.385Z,94.00
2019-01-14T22:54:14.754Z,94.00
2019-01-14T22:56:42.171Z,94.10
2019-01-14T22:59:09.744Z,94.10
2019-01-14T23:01:45.023Z,94.20
2019-01-14T23:04:14.843Z,94.30
2019-01-14T23:06:42.193Z,94.30
2019-01-14T23:09:09.616Z,94.40
2019-01-14T23:11:36.979Z,94.50
2019-01-14T23:14:04.487Z,94.50
2019-01-14T23:16:31.899Z,94.50
2019-01-14T23:18:59.444Z,94.60
2019-01-14T23:21:26.849Z,94.60
2019-01-14T23:23:54.206Z,94.70
2019-01-14T23:26:21.623Z,94.70
2019-01-14T23:28:48.986Z,94.80
2019-01-14T23:31:16.336Z,94.80
2019-01-14T23:33:43.739Z,94.90
2019-01-14T23:36:11.344Z,94.90
2019-01-14T23:38:38.731Z,94.90
2019-01-14T23:41:06.081Z,95.00
2019-01-14T23:43:33.490Z,95.10
2019-01-14T23:46:00.857Z,95.10
2019-01-14T23:48:33.302Z,95.20
2019-01-14T23:51:00.666Z,95.20
2019-01-14T23:53:28.037Z,95.20
2019-01-14T23:55:55.434Z,95.20
2019-01-14T23:58:22.781Z,95.30
